Portada
METAR-TAF:

METAR-TAF

Aeroports :

Birmingham, Anglaterra

latitud: 52-27N, longitud: 001-44W, altitud: 99 m

Observació

L'informe es va fer fa 16 minuts, a les 16:50 UTC
Vent 8 kt del Est/Nord-Est, variant entre Nord i Est
Temperatura 23°C
Humitat 36%
Pressió 1034 hPa
Visibilitat 10 km o més
sense núvols per sota de 1500 mi sense presència de cumulonimbus.

METAR: EGBB 271650Z 06008KT 350V090 CAVOK 23/07 Q1034

Hora: 18:06 (17:06 UTC)

Pronòstic

L'informe es va fer fa 6 hores i 14 minuts, a les 10:52 UTC
Pronòstic vàlid del 27 a les 12 UTC al 28 a les 12 UTC
Vent 5 kt del Oest/Nord-Oest
Visibilitat 10 km o més
Escasses núvols a una alçada de 4000 ft
Evolucionant progressivament
l' 27 a les 18 UTC al 27 a les 21 UTC
Vent 10 kt del Est
Probabilitat 30% :
Temporalment
l' 28 a les 03 UTC al 28 a les 06 UTC
Visibilitat: 8000 m
Cel ennuvolat a una alçada de 800 ft

TAF: EGBB 271052Z 2712/2812 30005KT 9999 FEW040 BECMG 2718/2721 08010KT PROB30 TEMPO 2803/2806 8000 BKN008

Observacions i pronòstics meteorològics de més de 4000 aeroports (METAR i TAF).

Les estacions disponibles són els punts grocs i vermells al mapa.

Posi el ratolí al punt desitjat per veure el nom de l'estació.

Feu clic per veure les observacions i els pronòstics meteorològics.

Per canviar el mapa: feu clic els botons verds amb una creu de color negre per apropar; al botó verd amb un guió per allunyar la imatge; o en les fletxes verdes per a mapes adjacents.


METAR-TAF: